Aérodrome :
LOGIN :

S'inscrire | Disclaimer

   EN    FR    IT 

 










Légende :    VFR   VFR Marginal   IFR   IFR Intensif   IFR Très Intensif
Visi : 
Plafond : 
>= 8 km
>= 3000ft
5 à 8 km
1000 à 3000 ft
1500m à 5 km
500 à 1000 ft
800 à 1500m
200 à 500 ft
< 800m
< 200 ft
Symboles :   Orages  Brouillard  Fortes neiges  Fortes précipitations  Vent > 20 kt
SIGMETs :   Divers  Orages  Givrage  Turbulence  Onde Orograph.  Cendres Volcan.







- Altitude de l'aérodrome : 100 ft
- Code IATA : DCI


LIED - Decimomannu Air Base

DERNIER METAR :
  • 230255Z 33011KT CAVOK 23/22 Q1011 RMK FEW FEW200 VIS MIN 9999 WIND THR35 33010KT WIND THR17 /////KT BLU

METARs EXPIRÉS :
  • 230155Z 34009KT CAVOK 23/22 Q1011 RMK FEW FEW200 VIS MIN 9999 WIND THR35 33011KT WIND THR17 /////KT BLU
  • 230055Z 34011KT CAVOK 22/22 Q1012 RMK SCT SCT200 VIS MIN 9999 WIND THR35 34009KT WIND THR17 /////KT BLU

TAF TAF LIED
Valide du 23 à 03h jusqu'au 23 à 12h UTC


230200Z 2303/2312 30005KT 9999 FEW010
BECMG 2306/2308 33012KT 9999 FEW030
Pas de NOTAMs connus pour ce terrain.
1 SIGMET publié pour la FIR Roma (LIRR) :
 
Orages noyés dans la masse
LIRR SIGMET 2 VALID 230200/230500 LIIB
LIRR ROMA FIR EMBD TS FCST WI N4022 E00800 - N4028 E01054 - N4209 E01344 - N4253 E01311 - N4333 E01317 - N4344 E01106 - N4333 E01021 - N4314 E00937 - N4119 E00944 - N4118 E00822 - N4100 E00757 - N4022 E00800 TOP FL390 STNR NC=



MET'MAP, la Météo Aéronautique d'un coup d'oeil ! - Copyright ORBIFLY Décembre 2007 - Disclaimer

ORBIFLY MET'MAP TEAM :

Programmation & Développement : Alexandra Zaïnal
Conception & Développement : Baudouin d'Aumeries
Co-Programmation & Développement : Marc-Olivier Méhu
Soutien technique & logistique : Manuel Goepfert

Contact : metmap@orbifly.com




SOURCES & CREDITS :

   NOAA